地図

経路データ

SID SEASON NUMBER BASIN SUBBASIN NAME ISO_TIME NATURE LAT LON WMO_WIND WMO_PRES WMO_AGENCY TRACK_TYPE DIST2LAND LANDFALL IFLAG USA_AGENCY USA_ATCF_ID USA_LAT USA_LON USA_RECORD USA_STATUS USA_WIND USA_PRES USA_SSHS USA_R34_NE USA_R34_SE USA_R34_SW USA_R34_NW USA_R50_NE USA_R50_SE USA_R50_SW USA_R50_NW USA_R64_NE USA_R64_SE USA_R64_SW USA_R64_NW USA_POCI USA_ROCI USA_RMW USA_EYE TOKYO_LAT TOKYO_LON TOKYO_GRADE TOKYO_WIND TOKYO_PRES TOKYO_R50_DIR TOKYO_R50_LONG TOKYO_R50_SHORT TOKYO_R30_DIR TOKYO_R30_LONG TOKYO_R30_SHORT TOKYO_LAND CMA_LAT CMA_LON CMA_CAT CMA_WIND CMA_PRES HKO_LAT HKO_LON HKO_CAT HKO_WIND HKO_PRES NEWDELHI_LAT NEWDELHI_LON NEWDELHI_GRADE NEWDELHI_WIND NEWDELHI_PRES NEWDELHI_CI NEWDELHI_DP NEWDELHI_POCI REUNION_LAT REUNION_LON REUNION_TYPE REUNION_WIND REUNION_PRES REUNION_TNUM REUNION_CI REUNION_RMW REUNION_R34_NE REUNION_R34_SE REUNION_R34_SW REUNION_R34_NW REUNION_R50_NE REUNION_R50_SE REUNION_R50_SW REUNION_R50_NW REUNION_R64_NE REUNION_R64_SE REUNION_R64_SW REUNION_R64_NW BOM_LAT BOM_LON BOM_TYPE BOM_WIND BOM_PRES BOM_TNUM BOM_CI BOM_RMW BOM_R34_NE BOM_R34_SE BOM_R34_SW BOM_R34_NW BOM_R50_NE BOM_R50_SE BOM_R50_SW BOM_R50_NW BOM_R64_NE BOM_R64_SE BOM_R64_SW BOM_R64_NW BOM_ROCI BOM_POCI BOM_EYE BOM_POS_METHOD BOM_PRES_METHOD NADI_LAT NADI_LON NADI_CAT NADI_WIND NADI_PRES WELLINGTON_LAT WELLINGTON_LON WELLINGTON_WIND WELLINGTON_PRES DS824_LAT DS824_LON DS824_STAGE DS824_WIND DS824_PRES TD9636_LAT TD9636_LON TD9636_STAGE TD9636_WIND TD9636_PRES TD9635_LAT TD9635_LON TD9635_WIND TD9635_PRES TD9635_ROCI NEUMANN_LAT NEUMANN_LON NEUMANN_CLASS NEUMANN_WIND NEUMANN_PRES MLC_LAT MLC_LON MLC_CLASS MLC_WIND MLC_PRES USA_GUST BOM_GUST BOM_GUST_PER REUNION_GUST REUNION_GUST_PER USA_SEAHGT USA_SEARAD_NE USA_SEARAD_SE USA_SEARAD_SW USA_SEARAD_NW STORM_SPEED STORM_DIR
1910025S13148 1910 6 SP EA NOT_NAMED 1910-01-24 23:00:00 NR -12.7000 147.900 bom main 280 280 ______O_______ -1 -12.7000 147.900 2 0
1910025S13148 1910 6 SP EA NOT_NAMED 1910-01-25 00:00:00 TS -12.7244 147.877 main 280 280 ______P__O____ -1 -12.7366 147.865 -12.7000 147.900 TC 3 221
1910025S13148 1910 6 SP EA NOT_NAMED 1910-01-25 03:00:00 TS -12.8395 147.771 main 292 292 ______P__P____ -1 -12.8472 147.761 -12.8279 147.785 TC 3 221
1910025S13148 1910 6 SP EA NOT_NAMED 1910-01-25 06:00:00 TS -12.9598 147.661 main 315 315 ______P__P____ -1 -12.9613 147.656 -12.9579 147.669 TC 3 221
1910025S13148 1910 6 SP EA NOT_NAMED 1910-01-25 09:00:00 TS -13.0868 147.550 main 318 303 ______P__P____ -1 -13.0815 147.549 -13.0920 147.551 TC 3 220
1910025S13148 1910 6 SP EA NOT_NAMED 1910-01-25 12:00:00 TS -13.2215 147.434 main 303 280 ______P__P____ -1 -13.2104 147.439 -13.2325 147.430 TC 4 219
1910025S13148 1910 6 SP EA NOT_NAMED 1910-01-25 15:00:00 TS -13.3661 147.315 main 280 264 ______P__P____ -1 -13.3507 147.326 -13.3814 147.305 TC 4 218
1910025S13148 1910 6 SP EA NOT_NAMED 1910-01-25 18:00:00 TS -13.5229 147.192 main 264 242 ______P__P____ -1 -13.5049 147.208 -13.5409 147.176 TC 4 217
1910025S13148 1910 6 SP EA NOT_NAMED 1910-01-25 21:00:00 TS -13.6943 147.063 main 242 227 ______P__P____ -1 -13.6756 147.085 -13.7131 147.041 TC 4 216
1910025S13148 1910 6 SP EA NOT_NAMED 1910-01-25 23:00:00 TS -13.8180 146.974 988 bom main 227 211 ______O__P____ -1 -13.8000 147.000 988 4 -13.8359 146.948 TC 5 215
1910025S13148 1910 6 SP EA NOT_NAMED 1910-01-26 00:00:00 TS -13.8828 146.928 main 211 190 ______P__O____ -1 -13.8656 146.956 -13.9000 146.900 TC 50 988 5 214
1910025S13148 1910 6 SP EA NOT_NAMED 1910-01-26 03:00:00 TS -14.0890 146.787 main 190 160 ______P__P____ -1 -14.0749 146.821 -14.1031 146.752 TC 5 213
1910025S13148 1910 6 SP EA NOT_NAMED 1910-01-26 06:00:00 TS -14.3105 146.640 main 160 140 ______P__P____ -1 -14.3002 146.681 -14.3208 146.598 TC 5 212
1910025S13148 1910 6 SP EA NOT_NAMED 1910-01-26 09:00:00 TS -14.5442 146.488 main 140 109 ______P__P____ -1 -14.5378 146.535 -14.5506 146.442 TC 6 212
1910025S13148 1910 6 SP EA NOT_NAMED 1910-01-26 12:00:00 TS -14.7871 146.335 main 109 92 ______P__P____ -1 -14.7840 146.384 -14.7902 146.285 TC 6 211
1910025S13148 1910 6 SP EA NOT_NAMED 1910-01-26 15:00:00 TS -15.0362 146.180 main 92 64 ______P__P____ -1 -15.0350 146.229 -15.0373 146.130 TC 6 211
1910025S13148 1910 6 SP EA NOT_NAMED 1910-01-26 18:00:00 TS -15.2884 146.025 main 64 54 ______P__P____ -1 -15.2872 146.071 -15.2895 145.980 TC 6 210
1910025S13148 1910 6 SP EA NOT_NAMED 1910-01-26 21:00:00 TS -15.5407 145.872 main 58 48 ______P__P____ -1 -15.5368 145.909 -15.5445 145.835 TC 6 210
1910025S13148 1910 6 SP EA NOT_NAMED 1910-01-26 23:00:00 TS -15.7075 145.772 bom main 48 33 ______O__P____ -1 -15.7000 145.800 -15.7149 145.744 TC 6 211
1910025S13148 1910 6 SP EA NOT_NAMED 1910-01-27 00:00:00 TS -15.7844 145.720 main 33 15 ______P__O____ -1 -15.7688 145.740 -15.8000 145.700 TC 6 213
1910025S13148 1910 6 SP EA NOT_NAMED 1910-01-27 03:00:00 TS -16.0223 145.556 main 15 0 ______P__P____ -1 -15.9783 145.561 -16.0663 145.551 TC 6 212
1910025S13148 1910 6 SP EA NOT_NAMED 1910-01-27 06:00:00 TS -16.2758 145.401 main 0 0 ______P__P____ -1 -16.2142 145.395 -16.3374 145.407 TC 6 209
1910025S13148 1910 6 SP EA NOT_NAMED 1910-01-27 08:00:00 TS -16.4592 145.308 bom main 0 0 ______O__P____ -1 -16.4000 145.300 -16.5184 145.316 TC 6 205
1910025S13148 1910 6 SP EA NOT_NAMED 1910-01-27 09:00:00 TS -16.5598 145.265 main 0 0 ______P__P____ -1 -16.5113 145.259 -16.6084 145.272 TC 7 199
1910025S13148 1910 6 SP EA NOT_NAMED 1910-01-27 12:00:00 TS -16.8729 145.154 main 0 0 ______P__P____ -1 -16.8710 145.156 -16.8748 145.151 TC 7 198
1910025S13148 1910 6 SP EA NOT_NAMED 1910-01-27 14:00:00 TS -17.0738 145.090 bom main 0 0 ______O__P____ -1 -17.1000 145.100 -17.0475 145.080 TC 6 197
1910025S13148 1910 6 SP EA NOT_NAMED 1910-01-27 15:00:00 TS -17.1657 145.059 main 0 0 ______P__P____ -1 -17.1996 145.069 -17.1319 145.049 TC 5 197
1910025S13148 1910 6 SP EA NOT_NAMED 1910-01-27 18:00:00 TS -17.4182 144.977 main 0 0 ______P__P____ -1 -17.4615 144.985 -17.3749 144.969 TC 5 195
1910025S13148 1910 6 SP EA NOT_NAMED 1910-01-27 21:00:00 TS -17.6380 144.921 main 0 0 ______P__P____ -1 -17.6768 144.923 -17.5991 144.918 TC 4 191
1910025S13148 1910 6 SP EA NOT_NAMED 1910-01-27 23:00:00 TS -17.7680 144.901 bom main 0 0 ______O__P____ -1 -17.8000 144.900 -17.7359 144.902 TC 4 191
1910025S13148 1910 6 SP EA NOT_NAMED 1910-01-28 00:00:00 TS -17.8285 144.890 main 0 0 ______P__O____ -1 -17.8570 144.880 -17.8000 144.900 TC 3 190
1910025S13148 1910 6 SP EA NOT_NAMED 1910-01-28 03:00:00 TS -17.9741 144.851 main 0 0 ______P__P____ -1 -17.9968 144.828 -17.9513 144.874 TC 3 191
1910025S13148 1910 6 SP EA NOT_NAMED 1910-01-28 06:00:00 TS -18.0890 144.837 main 0 0 ______P__P____ -1 -18.0999 144.797 -18.0780 144.876 TC 2 176
1910025S13148 1910 6 SP EA NOT_NAMED 1910-01-28 09:00:00 TS -18.1829 144.855 main 0 0 ______P__P____ -1 -18.1789 144.800 -18.1869 144.910 TC 2 159
1910025S13148 1910 6 SP EA NOT_NAMED 1910-01-28 12:00:00 TS -18.2656 144.914 main 0 0 ______P__P____ -1 -18.2465 144.848 -18.2847 144.980 TC 2 136
1910025S13148 1910 6 SP EA NOT_NAMED 1910-01-28 15:00:00 TS -18.3468 145.021 main 0 0 ______P__P____ -1 -18.3153 144.952 -18.3782 145.089 TC 3 123
1910025S13148 1910 6 SP EA NOT_NAMED 1910-01-28 18:00:00 TS -18.4360 145.184 main 0 0 ______P__P____ -1 -18.3979 145.125 -18.4741 145.243 TC 4 118
1910025S13148 1910 6 SP EA NOT_NAMED 1910-01-28 21:00:00 TS -18.5430 145.412 main 0 0 ______P__P____ -1 -18.5068 145.380 -18.5792 145.445 TC 5 116
1910025S13148 1910 6 SP EA NOT_NAMED 1910-01-28 23:00:00 TS -18.6288 145.604 bom main 0 0 ______O__P____ -1 -18.6000 145.600 -18.6576 145.609 TC 6 115
1910025S13148 1910 6 SP EA NOT_NAMED 1910-01-29 00:00:00 TS -18.6783 145.713 main 0 0 ______P__O____ -1 -18.6567 145.727 -18.7000 145.700 TC 7 115
1910025S13148 1910 6 SP EA NOT_NAMED 1910-01-29 03:00:00 TS -18.8396 146.081 main 0 0 ______P__P____ -1 -18.8377 146.152 -18.8415 146.010 TC 8 115
1910025S13148 1910 6 SP EA NOT_NAMED 1910-01-29 04:00:00 TS -18.8966 146.212 bom main 0 0 ______O__P____ -1 -18.9000 146.300 -18.8932 146.125 TC 8 115
1910025S13148 1910 6 SP EA NOT_NAMED 1910-01-29 06:00:00 TS -19.0127 146.470 main 10 0 ______P__P____ -1 -19.0231 146.570 -19.0023 146.370 TC 8 116
1910025S13148 1910 6 SP EA NOT_NAMED 1910-01-29 09:00:00 TS -19.1953 146.871 main 10 0 ______P__P____ -1 -19.2114 146.968 -19.1793 146.774 TC 9 116
1910025S13148 1910 6 SP EA NOT_NAMED 1910-01-29 12:00:00 TS -19.3860 147.290 main 10 0 ______P__P____ -1 -19.4026 147.367 -19.3693 147.214 TC 9 116
1910025S13148 1910 6 SP EA NOT_NAMED 1910-01-29 15:00:00 TS -19.5822 147.730 main 15 15 ______P__P____ -1 -19.5950 147.775 -19.5694 147.684 TC 9 115
1910025S13148 1910 6 SP EA NOT_NAMED 1910-01-29 18:00:00 TS -19.7817 148.191 main 22 15 ______P__P____ -1 -19.7868 148.206 -19.7765 148.176 TC 10 114
1910025S13148 1910 6 SP EA NOT_NAMED 1910-01-29 21:00:00 TS -19.9811 148.675 main 24 24 ______P__P____ -1 -19.9762 148.668 -19.9877 148.684 TC 10 113
1910025S13148 1910 6 SP EA NOT_NAMED 1910-01-29 23:00:00 TS -20.1098 149.009 bom main 30 30 ______O__P____ -1 -20.1000 149.000 -20.1293 149.027 TC 10 112
1910025S13148 1910 6 SP EA NOT_NAMED 1910-01-30 00:00:00 TS -20.1688 149.179 main 43 43 ______P__O____ -1 -20.1610 149.174 -20.2000 149.200 TC 11 109
1910025S13148 1910 6 SP EA NOT_NAMED 1910-01-30 03:00:00 NR -20.3400 149.727 main 86 86 ______P_______ -1 -20.3400 149.727 TC 11 108
1910025S13148 1910 6 SP EA NOT_NAMED 1910-01-30 06:00:00 NR -20.5133 150.322 main 132 132 ______P_______ -1 -20.5133 150.322 TC 12 107
1910025S13148 1910 6 SP EA NOT_NAMED 1910-01-30 09:00:00 NR -20.6812 150.953 main 192 186 ______P_______ -1 -20.6812 150.953 TC 13 105
1910025S13148 1910 6 SP EA NOT_NAMED 1910-01-30 12:00:00 NR -20.8437 151.615 main 201 196 ______P_______ -1 -20.8437 151.615 TC 13 104
1910025S13148 1910 6 SP EA NOT_NAMED 1910-01-30 15:00:00 NR -21.0012 152.301 main 227 227 ______P_______ -1 -21.0012 152.301 TC 13 103
1910025S13148 1910 6 SP EA NOT_NAMED 1910-01-30 18:00:00 NR -21.1541 153.005 main 269 269 ______P_______ -1 -21.1541 153.005 TC 14 103
1910025S13148 1910 6 SP EA NOT_NAMED 1910-01-30 21:00:00 NR -21.3029 153.720 main 327 327 ______P_______ -1 -21.3029 153.720 TC 14 102
1910025S13148 1910 6 SP EA NOT_NAMED 1910-01-30 23:00:00 NR -21.4000 154.200 bom main 371 ______O_______ -1 -21.4000 154.200 TC 14 102

デジタル台風データ・検索

IBTrACS Databaseについて

本データベースは、米国NOAAが公開する1842年以降の世界の熱帯低気圧のベストトラックデータアーカイブInternational Best Track Archive for Climate Stewardship (IBTrACS)を、ウェブで閲覧しやすい形式に変換したものです。

最終更新日:2021-10-21